Aulander, North Carolina
Current Conditions -  °F | °C
As of 2:55 AM on Saturday 25 Oct 2014 (Local Time) from KASJ Reporting Station
Clear Clear  
Wind Chill: 42°   Ceiling: Unl
Heat Index: 42°   Visibility: 10mi
Dew Point: 41°   Wind: 0mph
Humidity: 95%   Direction: NA
Pressure: 29.97"   Gusts: NA
Location:  36.23°N, 77.11°W
Report Text: KASJ 250655Z AUTO 00000KT 10SM CLR 06/05 A2997 RMK AO2 T00550048 PWINO
Loading
Personal Weather Stations






























Interactive Weather Map
Tropical Storm Tracking
New forecast layout! Learn more

10-Day Weather Forecast

Advertisements
Track Severe Weather on mobile